Time;durP1;ratioP1;P1;durP2;ratioP2;P2;SDS_P1;SDS_P2;PMS_P1;PMS_P2;Temp;Humidity;BMP_temperature;BMP_pressure;BME280_temperature;BME280_humidity;BME280_pressure;Samples;Min_cycle;Max_cycle;Signal;HPM_P1;HPM_P2
2022/05/07 04:30:40;;;;;;;36.60;33.43;;;8.30;99.90;;;;;;4987394;23;20503;-76
2022/05/07 04:33:07;;;;;;;38.87;35.40;;;8.30;99.90;;;;;;4978454;28;20475;-75
2022/05/07 04:35:34;;;;;;;38.13;34.63;;;8.30;99.90;;;;;;4973859;28;20452;-75
2022/05/07 04:38:01;;;;;;;38.63;35.00;;;8.30;99.90;;;;;;4984192;28;20458;-75
2022/05/07 04:40:29;;;;;;;37.17;34.07;;;8.40;99.90;;;;;;4973578;28;20456;-75
2022/05/07 04:42:56;;;;;;;40.47;36.97;;;8.40;99.90;;;;;;4973606;28;20526;-75
2022/05/07 04:45:24;;;;;;;42.17;38.20;;;8.70;99.90;;;;;;4973362;28;20514;-76
2022/05/07 04:47:52;;;;;;;45.50;41.27;;;8.90;99.90;;;;;;4973004;28;20469;-75
2022/05/07 04:50:19;;;;;;;45.00;40.67;;;9.10;99.90;;;;;;4973966;28;20447;-75
2022/05/07 04:52:46;;;;;;;43.50;39.57;;;9.20;99.90;;;;;;4973376;28;20455;-76
2022/05/07 04:55:12;;;;;;;43.47;39.50;;;9.40;99.90;;;;;;4973222;28;20447;-75
2022/05/07 04:57:39;;;;;;;38.37;35.27;;;9.60;99.90;;;;;;4972961;28;20997;-76
2022/05/07 05:00:07;;;;;;;36.27;33.13;;;9.80;99.90;;;;;;4973305;28;20472;-77
2022/05/07 05:02:34;;;;;;;35.87;32.90;;;10.10;99.90;;;;;;4973377;28;20518;-76
2022/05/07 05:05:02;;;;;;;34.43;29.80;;;10.30;99.90;;;;;;4973676;28;20448;-79
2022/05/07 05:07:29;;;;;;;28.70;26.37;;;10.40;99.90;;;;;;4973307;28;20527;-77
2022/05/07 05:09:55;;;;;;;28.20;25.67;;;10.40;99.90;;;;;;4973294;28;20460;-75
2022/05/07 05:12:22;;;;;;;28.30;25.80;;;10.50;99.90;;;;;;4972696;28;20460;-77
2022/05/07 05:15:04;;;;;;;27.70;25.33;;;10.60;99.90;;;;;;4973132;28;20913;-74
2022/05/07 05:17:32;;;;;;;25.90;23.60;;;10.70;99.90;;;;;;4973404;28;20818;-74
2022/05/07 05:20:00;;;;;;;26.27;24.03;;;10.80;99.90;;;;;;4972920;28;20473;-75
2022/05/07 05:22:28;;;;;;;26.10;24.00;;;10.90;99.90;;;;;;4972499;28;21001;-75
2022/05/07 05:24:55;;;;;;;24.63;22.63;;;11.00;99.90;;;;;;4972748;28;20463;-75
2022/05/07 05:27:21;;;;;;;25.73;23.73;;;11.20;99.90;;;;;;4973035;28;20828;-76
2022/05/07 05:29:49;;;;;;;25.47;23.47;;;11.20;99.90;;;;;;4973360;28;20459;-75
2022/05/07 05:32:18;;;;;;;24.33;22.53;;;11.30;99.90;;;;;;4974092;28;20993;-76
2022/05/07 05:34:46;;;;;;;23.90;22.13;;;11.50;99.90;;;;;;4974538;28;21081;-76
2022/05/07 05:37:14;;;;;;;24.40;22.47;;;11.70;99.90;;;;;;4973991;28;20467;-76
2022/05/07 05:39:42;;;;;;;23.03;21.27;;;12.00;99.90;;;;;;4981898;28;20937;-76
2022/05/07 05:42:10;;;;;;;24.30;22.50;;;12.00;99.90;;;;;;4972425;28;20451;-76
2022/05/07 05:44:38;;;;;;;24.27;22.40;;;12.20;99.90;;;;;;4972218;28;20487;-75
2022/05/07 05:47:05;;;;;;;25.03;22.83;;;12.30;99.90;;;;;;4972480;28;20608;-76
2022/05/07 05:49:33;;;;;;;21.83;20.20;;;12.50;99.90;;;;;;4972439;28;20824;-78
2022/05/07 05:52:00;;;;;;;21.53;19.93;;;12.80;99.90;;;;;;4972223;28;20958;-78
2022/05/07 05:54:27;;;;;;;24.83;22.70;;;13.10;99.90;;;;;;4972423;28;20454;-79
2022/05/07 05:56:55;;;;;;;23.80;21.80;;;13.20;99.90;;;;;;4971926;28;20451;-75
2022/05/07 05:59:22;;;;;;;21.73;20.23;;;13.50;99.90;;;;;;4971431;28;20459;-75
2022/05/07 06:01:49;;;;;;;22.53;20.50;;;13.60;99.90;;;;;;4972323;28;20491;-76
2022/05/07 06:04:15;;;;;;;23.20;21.10;;;14.00;99.90;;;;;;4971766;28;20498;-76
2022/05/07 06:06:42;;;;;;;23.10;21.40;;;14.20;99.90;;;;;;4972104;28;20550;-76
2022/05/07 06:09:09;;;;;;;24.03;22.33;;;14.50;99.90;;;;;;4972057;28;20467;-77
2022/05/07 06:11:37;;;;;;;23.87;21.97;;;14.60;99.90;;;;;;4971965;28;20479;-77
2022/05/07 06:14:05;;;;;;;22.17;20.57;;;14.70;99.90;;;;;;4972318;28;20450;-77
2022/05/07 06:16:32;;;;;;;23.83;21.87;;;14.80;99.90;;;;;;4971981;28;20458;-75
2022/05/07 06:19:01;;;;;;;23.13;21.50;;;14.70;99.90;;;;;;4971852;28;20508;-76
2022/05/07 06:21:28;;;;;;;22.73;21.00;;;14.90;99.90;;;;;;4972006;28;20474;-76
2022/05/07 06:23:55;;;;;;;22.70;21.07;;;15.30;99.90;;;;;;4971494;28;20491;-77
2022/05/07 06:29:08;;;;;;;21.47;20.00;;;16.00;99.90;;;;;;4970538;28;20984;-79
2022/05/07 06:31:34;;;;;;;21.77;20.17;;;16.40;99.90;;;;;;4971789;28;20509;-79
2022/05/07 06:34:01;;;;;;;22.90;21.00;;;16.40;99.90;;;;;;4972151;28;20452;-78
2022/05/07 06:36:28;;;;;;;20.07;18.63;;;16.40;99.90;;;;;;4971908;28;20673;-80
2022/05/07 06:38:54;;;;;;;21.90;20.20;;;16.60;99.90;;;;;;4971545;28;20535;-79
2022/05/07 06:41:21;;;;;;;23.20;21.50;;;16.80;99.90;;;;;;4971796;28;20459;-79
2022/05/07 06:43:48;;;;;;;21.13;19.63;;;17.00;99.90;;;;;;4972149;28;20491;-78
2022/05/07 06:46:16;;;;;;;22.47;20.63;;;17.40;99.90;;;;;;4971669;28;21016;-79
2022/05/07 06:48:43;;;;;;;23.30;21.30;;;17.60;99.90;;;;;;4972065;28;20502;-80
2022/05/07 06:51:10;;;;;;;19.77;18.63;;;18.10;99.90;;;;;;4971902;28;20459;-80
2022/05/07 06:53:37;;;;;;;22.30;20.80;;;18.30;99.90;;;;;;4972287;28;20463;-85
2022/05/07 06:56:04;;;;;;;21.80;19.97;;;18.20;99.90;;;;;;4973110;28;20451;-83
2022/05/07 06:58:34;;;;;;;20.57;18.97;;;18.20;99.90;;;;;;4972562;28;20467;-83
2022/05/07 07:01:02;;;;;;;22.70;20.97;;;18.60;99.90;;;;;;4972352;28;20479;-83
2022/05/07 07:03:30;;;;;;;20.70;19.23;;;19.40;99.90;;;;;;4972331;28;20472;-84
2022/05/07 07:05:58;;;;;;;20.13;18.63;;;20.30;99.80;;;;;;4971707;28;20570;-84
2022/05/07 07:08:25;;;;;;;22.43;20.27;;;20.80;98.30;;;;;;4972599;28;20500;-84
2022/05/07 07:10:52;;;;;;;22.00;20.30;;;21.50;96.40;;;;;;4975271;28;20905;-80
2022/05/07 07:13:18;;;;;;;22.47;20.83;;;21.60;95.40;;;;;;4975497;28;20451;-83
2022/05/07 07:15:45;;;;;;;20.83;19.40;;;22.00;94.70;;;;;;4975478;28;20521;-78
2022/05/07 07:18:12;;;;;;;20.47;18.97;;;22.40;93.20;;;;;;4976754;28;20949;-82
2022/05/07 07:20:42;;;;;;;22.13;20.73;;;22.70;92.60;;;;;;4979471;28;20456;-86
2022/05/07 07:23:10;;;;;;;21.33;19.83;;;22.80;91.80;;;;;;4976443;28;20949;-83
2022/05/07 07:25:38;;;;;;;20.97;19.67;;;22.80;91.30;;;;;;4976042;28;20487;-84
2022/05/07 07:28:05;;;;;;;19.93;18.53;;;22.90;91.50;;;;;;4976871;28;20499;-84
2022/05/07 07:30:33;;;;;;;21.43;20.13;;;23.20;91.30;;;;;;4976191;28;20455;-86
2022/05/07 07:33:00;;;;;;;19.30;18.20;;;23.40;90.30;;;;;;4973675;28;20479;-85
2022/05/07 07:35:27;;;;;;;21.40;19.90;;;23.70;89.30;;;;;;4974746;28;20448;-84
2022/05/07 07:37:55;;;;;;;20.97;19.70;;;24.10;87.10;;;;;;4977273;28;20450;-85
2022/05/07 07:40:21;;;;;;;21.10;19.73;;;24.30;86.00;;;;;;4975057;28;20458;-85
2022/05/07 07:42:48;;;;;;;21.73;20.33;;;24.40;85.80;;;;;;4975529;28;20455;-85
2022/05/07 07:48:02;;;;;;;20.97;19.67;;;24.80;84.50;;;;;;4974951;28;20451;-85
2022/05/07 07:50:31;;;;;;;22.03;20.33;;;25.30;84.00;;;;;;4974604;28;21009;-83
2022/05/07 07:53:02;;;;;;;20.50;19.00;;;25.30;81.40;;;;;;4975231;28;20655;-85
2022/05/07 07:55:29;;;;;;;21.17;19.70;;;25.50;81.60;;;;;;4984784;28;20452;-85
2022/05/07 07:57:57;;;;;;;21.47;20.03;;;25.90;81.10;;;;;;4974232;28;20832;-84
2022/05/07 08:00:24;;;;;;;19.87;18.60;;;26.20;79.10;;;;;;4973633;28;20503;-83
2022/05/07 08:02:52;;;;;;;21.50;19.87;;;25.80;79.30;;;;;;4973445;28;20462;-79
2022/05/07 08:05:22;;;;;;;23.40;20.93;;;25.80;80.30;;;;;;4974010;28;20495;-80
2022/05/07 08:13:19;;;;;;;20.03;18.73;;;26.80;77.00;;;;;;4974440;28;20499;-82
2022/05/07 08:15:46;;;;;;;21.43;20.23;;;26.80;76.20;;;;;;4973656;28;20912;-82
2022/05/07 08:18:13;;;;;;;22.90;21.23;;;27.00;75.20;;;;;;4973616;28;20543;-85
2022/05/07 08:20:41;;;;;;;21.07;19.73;;;26.20;75.30;;;;;;4973609;28;20885;-84
2022/05/07 08:23:08;;;;;;;20.60;19.37;;;25.80;77.80;;;;;;4973186;28;20463;-85
2022/05/07 08:25:37;;;;;;;22.33;20.83;;;26.10;76.60;;;;;;4973329;28;20574;-86
2022/05/07 08:28:04;;;;;;;21.87;20.47;;;25.80;77.10;;;;;;4973888;28;20851;-84
2022/05/07 08:30:31;;;;;;;21.47;20.13;;;26.00;76.80;;;;;;4973639;28;20461;-81
2022/05/07 08:32:58;;;;;;;20.73;19.17;;;25.90;76.60;;;;;;4973173;28;20493;-82
2022/05/07 08:35:24;;;;;;;20.40;19.00;;;26.00;75.60;;;;;;4973342;28;20773;-86
2022/05/07 08:37:51;;;;;;;21.97;20.50;;;26.10;76.60;;;;;;4973892;28;20463;-82
2022/05/07 08:40:20;;;;;;;20.37;19.03;;;25.90;76.00;;;;;;4973702;28;21191;-83
2022/05/07 08:42:48;;;;;;;22.40;20.67;;;26.80;73.90;;;;;;4973518;28;20499;-83
2022/05/07 08:45:15;;;;;;;19.80;18.80;;;27.20;71.40;;;;;;4972955;28;20520;-81
2022/05/07 08:47:43;;;;;;;21.93;20.63;;;28.30;69.50;;;;;;4972833;28;20721;-81
2022/05/07 08:50:12;;;;;;;21.83;20.33;;;28.80;67.40;;;;;;4972922;28;20456;-83
2022/05/07 08:52:41;;;;;;;19.73;18.53;;;29.10;65.00;;;;;;4973280;28;20459;-83
2022/05/07 08:55:10;;;;;;;20.50;19.20;;;29.30;65.80;;;;;;4972820;28;20557;-84
2022/05/07 08:57:36;;;;;;;21.10;19.30;;;29.90;63.00;;;;;;4972725;28;20460;-80
2022/05/07 09:00:06;;;;;;;20.90;19.50;;;30.40;60.00;;;;;;4972795;28;20486;-80
2022/05/07 09:02:39;;;;;;;19.57;18.43;;;30.40;58.50;;;;;;4972652;28;20494;-80
2022/05/07 09:05:06;;;;;;;21.57;20.03;;;29.60;59.40;;;;;;4973274;28;20582;-80
2022/05/07 09:07:33;;;;;;;21.13;19.73;;;29.80;58.90;;;;;;4973299;28;20459;-81
2022/05/07 09:10:00;;;;;;;20.30;19.10;;;29.20;61.10;;;;;;4972287;28;20448;-82
2022/05/07 09:12:28;;;;;;;19.47;18.40;;;29.30;60.00;;;;;;4972793;28;20637;-82
2022/05/07 09:14:56;;;;;;;20.13;18.83;;;29.40;58.30;;;;;;4972470;28;20447;-81
2022/05/07 09:17:24;;;;;;;20.80;19.50;;;29.90;57.60;;;;;;4973439;28;20879;-77
2022/05/07 09:19:51;;;;;;;20.27;18.70;;;29.90;57.80;;;;;;4972178;28;20454;-77
2022/05/07 09:22:19;;;;;;;18.03;16.60;;;30.00;57.10;;;;;;4972223;28;20455;-77
2022/05/07 09:24:55;;;;;;;16.27;15.37;;;30.00;54.30;;;;;;4971753;28;20483;-76
2022/05/07 09:27:22;;;;;;;18.03;17.10;;;30.40;52.50;;;;;;4969143;28;20499;-74
2022/05/07 09:29:59;;;;;;;17.20;16.23;;;29.50;53.20;;;;;;4971767;28;20455;-76
2022/05/07 09:32:36;;;;;;;16.70;15.80;;;27.90;55.00;;;;;;4971511;28;20538;-76
2022/05/07 09:37:59;;;;;;;17.23;16.33;;;27.80;55.80;;;;;;4971961;28;20446;-75
2022/05/07 09:40:26;;;;;;;17.03;15.97;;;27.20;56.90;;;;;;4971893;28;20470;-76
2022/05/07 09:42:55;;;;;;;14.00;13.30;;;27.30;57.30;;;;;;4971702;28;20869;-78
2022/05/07 09:45:22;;;;;;;13.87;13.10;;;27.90;54.60;;;;;;4969999;28;20833;-77
2022/05/07 09:47:51;;;;;;;14.73;14.03;;;28.00;51.60;;;;;;4972169;28;20451;-76
2022/05/07 09:50:22;;;;;;;13.97;13.40;;;28.40;50.10;;;;;;4971843;28;20984;-78
2022/05/07 09:58:20;;;;;;;12.63;12.03;;;28.70;50.00;;;;;;4971985;28;20429;-76
2022/05/07 10:01:11;;;;;;;11.97;11.40;;;28.80;47.50;;;;;;4971719;28;20459;-76
2022/05/07 10:03:48;;;;;;;12.90;12.30;;;27.30;46.50;;;;;;4971515;28;20490;-77
2022/05/07 10:06:30;;;;;;;13.20;12.50;;;25.80;50.00;;;;;;4971504;28;20443;-77
2022/05/07 10:09:12;;;;;;;12.77;12.20;;;25.00;50.60;;;;;;4971446;28;20452;-77
2022/05/07 10:11:39;;;;;;;11.97;11.47;;;24.80;52.30;;;;;;4971368;28;21075;-74
2022/05/07 10:14:06;;;;;;;12.50;11.90;;;23.60;52.50;;;;;;4971631;28;20456;-75
2022/05/07 10:16:33;;;;;;;11.97;11.47;;;23.50;53.10;;;;;;4971794;28;20462;-76
2022/05/07 10:19:11;;;;;;;12.47;11.70;;;24.10;53.60;;;;;;4971330;28;20806;-74
2022/05/07 10:21:37;;;;;;;12.10;11.60;;;26.00;52.10;;;;;;4971419;28;20439;-78
2022/05/07 10:24:05;;;;;;;12.10;11.50;;;27.80;50.10;;;;;;4971534;28;20818;-77
2022/05/07 10:26:40;;;;;;;13.47;12.97;;;28.20;49.30;;;;;;4971560;28;20510;-77
2022/05/07 10:29:07;;;;;;;13.70;13.00;;;29.30;47.60;;;;;;4971240;28;20831;-76
2022/05/07 10:31:45;;;;;;;13.50;12.80;;;29.60;45.70;;;;;;4971277;28;20479;-76
2022/05/07 10:34:24;;;;;;;13.40;12.80;;;30.30;44.50;;;;;;4971305;28;20774;-77
2022/05/07 10:37:00;;;;;;;13.13;12.53;;;30.40;43.50;;;;;;4971280;28;20456;-77
2022/05/07 10:39:27;;;;;;;13.33;12.70;;;30.00;44.00;;;;;;4971033;28;20458;-75
2022/05/07 10:41:54;;;;;;;13.33;12.63;;;29.90;45.00;;;;;;4971088;28;20451;-75
2022/05/07 10:44:31;;;;;;;13.70;13.10;;;29.10;45.40;;;;;;4971524;28;20613;-75
2022/05/07 10:47:08;;;;;;;13.50;12.90;;;30.10;45.50;;;;;;4975038;28;20487;-76
2022/05/07 10:49:36;;;;;;;13.57;13.07;;;30.50;45.50;;;;;;4975270;28;20820;-76
2022/05/07 10:52:04;;;;;;;14.10;13.30;;;31.40;44.30;;;;;;4975333;28;20455;-77
2022/05/07 10:54:31;;;;;;;14.83;13.87;;;31.60;43.50;;;;;;4974979;28;20972;-76
2022/05/07 10:56:59;;;;;;;14.77;14.10;;;30.90;44.40;;;;;;4974988;28;20452;-77
2022/05/07 10:59:29;;;;;;;14.40;13.80;;;29.80;47.20;;;;;;4974843;28;20451;-77
2022/05/07 11:02:05;;;;;;;15.20;14.50;;;28.90;49.10;;;;;;4974972;28;21170;-77
2022/05/07 11:04:32;;;;;;;13.83;13.23;;;27.70;50.50;;;;;;4974732;28;21024;-77
2022/05/07 11:07:00;;;;;;;14.70;13.90;;;26.80;52.40;;;;;;4974753;28;20474;-77
2022/05/07 11:09:27;;;;;;;14.03;13.33;;;26.70;52.80;;;;;;4974750;28;20459;-77
2022/05/07 11:11:56;;;;;;;14.00;13.40;;;27.70;50.50;;;;;;4974734;28;20934;-76
2022/05/07 11:14:24;;;;;;;13.97;13.17;;;28.30;48.60;;;;;;4974417;28;20456;-76
2022/05/07 11:16:52;;;;;;;13.80;13.20;;;28.40;47.50;;;;;;4974612;28;20810;-76
2022/05/07 11:19:30;;;;;;;13.80;13.10;;;28.20;48.60;;;;;;4974663;28;20455;-76
2022/05/07 11:21:59;;;;;;;13.50;12.90;;;26.80;49.80;;;;;;4974385;28;20462;-76
2022/05/07 11:24:28;;;;;;;12.07;11.57;;;26.90;50.20;;;;;;4974324;28;20491;-75
2022/05/07 11:26:57;;;;;;;13.07;12.57;;;25.90;48.50;;;;;;4974422;28;20460;-76
2022/05/07 11:29:24;;;;;;;13.80;13.03;;;24.70;51.70;;;;;;4974223;28;20486;-77
2022/05/07 11:31:55;;;;;;;12.37;11.77;;;24.90;52.30;;;;;;4974172;28;20534;-75
2022/05/07 11:34:29;;;;;;;13.03;12.33;;;25.90;51.40;;;;;;4974181;28;20972;-76
2022/05/07 11:36:56;;;;;;;13.50;12.90;;;26.70;50.30;;;;;;4974248;28;20538;-75
2022/05/07 11:39:24;;;;;;;13.20;12.60;;;26.80;50.60;;;;;;4974097;28;20451;-78
2022/05/07 11:41:55;;;;;;;12.93;12.40;;;27.30;50.30;;;;;;4974175;28;20456;-75
2022/05/07 11:47:21;;;;;;;12.30;11.70;;;26.10;49.30;;;;;;4975249;28;20571;-75
2022/05/07 11:49:59;;;;;;;12.07;11.57;;;25.80;48.10;;;;;;4975081;28;20558;-76
2022/05/07 11:52:28;;;;;;;11.83;11.37;;;25.70;48.80;;;;;;4974752;28;20447;-75
2022/05/07 11:54:55;;;;;;;13.10;12.50;;;26.80;48.70;;;;;;4973366;28;20471;-75
2022/05/07 11:57:31;;;;;;;13.23;12.47;;;27.30;45.90;;;;;;4972699;28;20513;-75
2022/05/07 12:00:12;;;;;;;13.07;12.37;;;27.90;45.50;;;;;;4973771;28;20862;-75
2022/05/07 12:02:39;;;;;;;12.30;11.80;;;28.80;44.40;;;;;;4972011;28;20961;-76
2022/05/07 12:05:07;;;;;;;13.40;12.80;;;28.90;43.40;;;;;;4973656;28;20491;-76
2022/05/07 12:07:39;;;;;;;13.07;12.27;;;29.40;42.50;;;;;;4974035;28;20462;-75
2022/05/07 12:10:07;;;;;;;12.77;12.27;;;29.50;41.70;;;;;;4973810;28;20552;-75
2022/05/07 12:12:35;;;;;;;12.67;12.17;;;28.10;43.10;;;;;;4973829;28;20456;-76
2022/05/07 12:15:01;;;;;;;13.10;12.50;;;27.60;44.90;;;;;;4971861;28;20448;-75
2022/05/07 12:20:12;;;;;;;13.73;12.90;;;26.10;46.50;;;;;;4971891;28;20482;-75
2022/05/07 12:30:53;;;;;;;12.93;12.43;;;26.20;45.60;;;;;;4973102;28;20510;-76
2022/05/07 12:33:19;;;;;;;12.67;12.07;;;27.00;44.60;;;;;;4973410;28;20458;-75
2022/05/07 12:35:46;;;;;;;13.97;13.10;;;27.30;45.40;;;;;;4973150;28;20933;-77
2022/05/07 12:38:13;;;;;;;13.03;12.53;;;26.80;47.10;;;;;;4972904;28;20824;-75
2022/05/07 12:40:40;;;;;;;13.30;12.70;;;26.50;48.10;;;;;;4972836;28;20788;-75
2022/05/07 12:43:07;;;;;;;15.00;14.07;;;26.40;49.60;;;;;;4972694;28;20491;-75
2022/05/07 12:45:35;;;;;;;13.07;12.47;;;26.20;48.70;;;;;;4972884;28;20834;-75
2022/05/07 12:48:02;;;;;;;13.10;12.60;;;26.00;48.90;;;;;;4973167;28;20523;-74
2022/05/07 12:50:29;;;;;;;12.60;11.97;;;26.50;49.40;;;;;;4972856;28;20561;-74
2022/05/07 12:52:56;;;;;;;12.50;12.00;;;27.10;47.50;;;;;;4972719;28;20456;-75
2022/05/07 12:55:22;;;;;;;13.27;12.67;;;27.30;46.60;;;;;;4972664;28;20460;-75
2022/05/07 12:57:49;;;;;;;12.07;11.57;;;27.60;45.20;;;;;;4973100;28;20875;-75
2022/05/07 13:00:17;;;;;;;12.80;12.00;;;27.40;45.80;;;;;;4972798;28;20451;-75
2022/05/07 13:02:45;;;;;;;12.67;12.17;;;28.50;44.60;;;;;;4972579;28;20452;-75
2022/05/07 13:05:11;;;;;;;13.90;13.30;;;29.00;44.00;;;;;;4972594;28;20479;-75
2022/05/07 13:07:39;;;;;;;14.20;13.57;;;30.00;43.30;;;;;;4972264;28;20818;-75
2022/05/07 13:10:07;;;;;;;13.47;12.77;;;30.60;42.70;;;;;;4972535;28;20550;-76
2022/05/07 13:12:33;;;;;;;13.13;12.63;;;30.80;42.50;;;;;;4972748;28;20447;-76
2022/05/07 13:15:00;;;;;;;14.03;13.43;;;31.10;42.40;;;;;;4972423;28;20821;-75
2022/05/07 13:17:27;;;;;;;14.07;13.37;;;31.50;42.70;;;;;;4972297;28;20479;-75
2022/05/07 13:19:55;;;;;;;14.10;13.37;;;31.60;42.10;;;;;;4972343;28;20452;-76
2022/05/07 13:22:21;;;;;;;13.10;12.40;;;30.90;41.70;;;;;;4972339;28;20456;-76
2022/05/07 13:24:48;;;;;;;13.50;12.80;;;30.70;41.10;;;;;;4972516;28;20459;-76
2022/05/07 13:27:15;;;;;;;13.20;12.60;;;30.50;41.40;;;;;;4972201;28;20517;-76
2022/05/07 13:29:41;;;;;;;12.80;12.30;;;30.20;41.90;;;;;;4972001;28;20463;-77
2022/05/07 13:32:09;;;;;;;12.73;11.93;;;30.40;42.10;;;;;;4971828;28;20491;-76
2022/05/07 13:34:36;;;;;;;12.70;12.27;;;29.20;40.70;;;;;;4972059;28;20961;-75
2022/05/07 13:37:04;;;;;;;12.73;12.03;;;28.30;42.40;;;;;;4971971;28;20458;-76
2022/05/07 13:39:31;;;;;;;13.80;13.20;;;27.90;43.10;;;;;;4972228;28;20490;-75
2022/05/07 13:41:59;;;;;;;12.53;11.93;;;26.80;45.30;;;;;;4972056;28;20942;-75
2022/05/07 13:44:26;;;;;;;13.03;12.43;;;25.60;47.10;;;;;;4971900;28;21022;-75
2022/05/07 13:46:52;;;;;;;12.60;12.10;;;24.70;48.10;;;;;;4971881;28;20487;-75
2022/05/07 13:49:19;;;;;;;13.43;12.73;;;24.80;48.40;;;;;;4972238;28;20455;-78
2022/05/07 13:51:46;;;;;;;13.27;12.67;;;25.00;48.70;;;;;;4972059;28;20459;-76
2022/05/07 13:54:15;;;;;;;12.70;12.00;;;25.30;48.40;;;;;;4971830;28;20957;-78
2022/05/07 13:56:42;;;;;;;13.20;12.50;;;25.80;47.50;;;;;;4971939;28;20448;-78
2022/05/07 13:59:08;;;;;;;12.97;12.17;;;25.40;48.30;;;;;;4971627;28;20455;-77
2022/05/07 14:01:35;;;;;;;13.23;12.63;;;24.70;49.40;;;;;;4971880;28;20459;-80
2022/05/07 14:04:02;;;;;;;13.40;12.53;;;25.00;49.70;;;;;;4971904;28;20455;-77
2022/05/07 14:06:29;;;;;;;12.20;11.70;;;25.30;49.40;;;;;;4971574;28;20494;-78
2022/05/07 14:08:55;;;;;;;13.03;12.33;;;25.50;50.00;;;;;;4971559;28;21154;-77
2022/05/07 14:11:24;;;;;;;12.90;12.27;;;26.10;48.80;;;;;;4971639;28;20455;-78
2022/05/07 14:13:50;;;;;;;13.33;12.77;;;26.50;48.20;;;;;;4971728;28;20874;-77
2022/05/07 14:16:17;;;;;;;13.87;13.07;;;25.80;47.90;;;;;;4971711;28;20459;-77
2022/05/07 14:18:44;;;;;;;12.80;12.10;;;25.10;48.30;;;;;;4971300;28;20487;-77
2022/05/07 14:21:11;;;;;;;12.93;12.43;;;24.40;49.70;;;;;;4971168;28;20547;-77
2022/05/07 14:23:38;;;;;;;12.90;12.20;;;24.20;50.20;;;;;;4969717;28;20483;-77
2022/05/07 14:26:05;;;;;;;13.57;12.97;;;24.30;50.90;;;;;;4971414;28;20543;-76
2022/05/07 14:28:33;;;;;;;12.80;12.30;;;24.60;50.50;;;;;;4971239;28;21011;-77
2022/05/07 14:31:00;;;;;;;13.20;12.50;;;25.30;49.40;;;;;;4970901;28;20447;-78
2022/05/07 14:33:27;;;;;;;12.13;11.70;;;25.90;48.90;;;;;;4971864;28;20993;-78
2022/05/07 14:35:54;;;;;;;13.50;12.90;;;26.70;48.10;;;;;;4971062;28;20789;-79
2022/05/07 14:38:21;;;;;;;14.73;13.93;;;26.80;47.20;;;;;;4971289;28;20451;-78
2022/05/07 14:40:48;;;;;;;13.53;12.77;;;26.30;47.20;;;;;;4971245;28;20455;-77
2022/05/07 14:43:15;;;;;;;13.40;12.70;;;26.50;47.40;;;;;;4971126;28;20877;-76
2022/05/07 14:45:44;;;;;;;13.10;12.60;;;26.10;47.80;;;;;;4971028;28;20483;-77
2022/05/07 14:48:11;;;;;;;13.57;12.80;;;26.00;47.90;;;;;;4969720;28;20509;-76
2022/05/07 14:50:38;;;;;;;13.60;12.90;;;25.90;47.60;;;;;;4972653;28;20973;-76
2022/05/07 14:53:05;;;;;;;13.27;12.50;;;25.50;48.30;;;;;;4971420;28;20459;-77
2022/05/07 14:55:32;;;;;;;14.30;13.40;;;25.10;49.80;;;;;;4971122;28;20452;-76
2022/05/07 14:57:58;;;;;;;13.73;13.13;;;24.80;50.50;;;;;;4971106;28;20823;-77
2022/05/07 15:00:25;;;;;;;12.90;12.30;;;24.60;50.40;;;;;;4970972;28;20458;-77
2022/05/07 15:02:53;;;;;;;14.10;13.20;;;24.10;51.30;;;;;;4971039;28;20530;-76
2022/05/07 15:05:20;;;;;;;13.90;13.30;;;23.70;52.50;;;;;;4971202;28;20455;-76
2022/05/07 15:07:47;;;;;;;13.60;12.90;;;23.50;53.30;;;;;;4971281;28;20455;-76
2022/05/07 15:12:58;;;;;;;13.87;13.07;;;23.40;53.70;;;;;;4971142;28;20522;-74
2022/05/07 15:15:25;;;;;;;13.80;12.80;;;23.60;54.00;;;;;;4970779;28;20471;-75
2022/05/07 15:17:54;;;;;;;13.00;12.40;;;23.70;53.40;;;;;;4969961;28;20467;-75
2022/05/07 15:20:21;;;;;;;14.07;13.37;;;24.10;53.80;;;;;;4979692;28;20448;-75
2022/05/07 15:22:48;;;;;;;13.67;13.07;;;24.40;52.70;;;;;;4980126;28;20951;-76
2022/05/07 15:25:15;;;;;;;12.87;12.17;;;24.20;53.30;;;;;;4978732;28;20522;-75
2022/05/07 15:27:46;;;;;;;13.80;13.17;;;24.00;53.40;;;;;;4980210;28;20549;-75
2022/05/07 15:30:13;;;;;;;12.40;11.80;;;23.90;53.90;;;;;;4989528;28;20465;-76
2022/05/07 15:38:10;;;;;;;14.00;13.40;;;23.40;54.50;;;;;;4993931;28;20807;-76
2022/05/07 15:40:36;;;;;;;12.90;12.03;;;23.40;54.90;;;;;;4993917;28;20457;-77
2022/05/07 15:43:03;;;;;;;12.53;12.03;;;23.60;54.20;;;;;;4994026;28;20461;-78
2022/05/07 15:45:31;;;;;;;13.27;12.67;;;24.00;54.50;;;;;;4993608;28;20449;-75
2022/05/07 15:47:58;;;;;;;15.20;14.27;;;24.20;53.60;;;;;;4993634;28;20477;-77
2022/05/07 15:50:26;;;;;;;13.50;12.90;;;23.70;53.60;;;;;;4993536;28;20509;-76
2022/05/07 15:52:54;;;;;;;14.53;13.83;;;23.60;55.10;;;;;;4993352;28;20451;-76
2022/05/07 15:55:21;;;;;;;15.00;14.30;;;23.40;55.40;;;;;;4993543;28;20533;-75
2022/05/07 15:57:48;;;;;;;14.30;13.70;;;22.80;55.70;;;;;;4993625;28;20447;-75
2022/05/07 16:00:15;;;;;;;15.73;14.73;;;22.40;57.30;;;;;;4993255;28;20458;-77
2022/05/07 16:02:43;;;;;;;13.80;13.00;;;22.30;58.60;;;;;;4990613;28;20846;-75
2022/05/07 16:05:10;;;;;;;14.87;14.27;;;22.00;57.80;;;;;;4973790;28;21236;-75
2022/05/07 16:07:39;;;;;;;14.60;14.00;;;21.90;58.30;;;;;;4973801;28;21080;-76
2022/05/07 16:10:07;;;;;;;15.03;13.97;;;21.80;57.80;;;;;;4973899;28;20451;-76
2022/05/07 16:12:33;;;;;;;15.13;14.10;;;21.60;58.30;;;;;;4974273;28;20463;-78
2022/05/07 16:15:01;;;;;;;14.40;13.80;;;21.50;58.90;;;;;;4974022;28;20491;-78
2022/05/07 16:17:28;;;;;;;14.50;13.80;;;21.40;58.50;;;;;;4974410;28;20503;-81
2022/05/07 16:19:55;;;;;;;14.33;13.63;;;21.40;59.00;;;;;;4979450;28;20451;-81
2022/05/07 16:25:08;;;;;;;14.10;13.40;;;21.40;58.60;;;;;;4979041;28;20431;-83
2022/05/07 16:27:35;;;;;;;15.07;14.27;;;21.50;59.30;;;;;;4974948;28;20996;-81
2022/05/07 16:30:02;;;;;;;14.70;13.90;;;21.60;59.50;;;;;;4974870;28;20451;-82
2022/05/07 16:32:28;;;;;;;13.27;12.57;;;21.70;58.80;;;;;;4974603;28;20491;-83
2022/05/07 16:34:55;;;;;;;14.37;13.57;;;21.80;59.20;;;;;;4975904;28;20471;-82
2022/05/07 16:37:22;;;;;;;14.43;13.67;;;21.80;58.50;;;;;;4980232;28;20829;-84
2022/05/07 16:39:48;;;;;;;14.80;14.00;;;22.10;59.50;;;;;;4974675;28;20984;-82
2022/05/07 16:42:17;;;;;;;14.03;13.23;;;22.30;58.60;;;;;;4974387;28;20459;-81
2022/05/07 16:44:44;;;;;;;14.47;13.67;;;22.40;58.50;;;;;;4974424;28;20462;-81
2022/05/07 16:47:10;;;;;;;15.23;14.20;;;22.40;58.10;;;;;;4974282;28;20527;-82
2022/05/07 16:49:39;;;;;;;14.40;13.70;;;22.50;58.60;;;;;;4974476;28;20459;-84
2022/05/07 16:52:06;;;;;;;14.60;13.93;;;22.60;58.80;;;;;;4974576;28;20463;-83
2022/05/07 16:54:33;;;;;;;14.67;14.07;;;22.60;59.50;;;;;;4976853;28;20451;-83
2022/05/07 16:57:00;;;;;;;14.63;13.83;;;22.60;58.50;;;;;;4973945;28;20451;-81
2022/05/07 16:59:28;;;;;;;14.57;13.87;;;22.50;58.00;;;;;;4971399;28;20803;-79
2022/05/07 17:01:54;;;;;;;14.00;13.20;;;22.30;58.50;;;;;;4970764;28;20789;-82
2022/05/07 17:04:21;;;;;;;14.20;13.40;;;22.20;58.40;;;;;;4969629;28;20515;-80
2022/05/07 17:06:48;;;;;;;14.43;13.63;;;22.00;57.40;;;;;;4972918;28;20491;-81
2022/05/07 17:09:14;;;;;;;13.57;12.90;;;21.80;57.70;;;;;;4972983;28;20460;-83
2022/05/07 17:11:41;;;;;;;14.40;13.60;;;21.70;58.40;;;;;;4973024;28;20455;-81
2022/05/07 17:14:08;;;;;;;13.80;13.10;;;21.70;58.70;;;;;;4973022;28;20567;-80
2022/05/07 17:16:36;;;;;;;14.37;13.47;;;21.70;58.90;;;;;;4973512;28;20455;-83
2022/05/07 17:19:03;;;;;;;12.83;12.33;;;21.70;58.70;;;;;;4975683;28;20460;-82
2022/05/07 17:21:30;;;;;;;13.33;12.43;;;21.60;58.50;;;;;;4978548;28;20479;-82
2022/05/07 17:23:57;;;;;;;13.43;12.83;;;21.70;59.50;;;;;;4977892;28;20444;-81
2022/05/07 17:26:23;;;;;;;14.50;13.47;;;21.60;59.60;;;;;;4977509;28;20494;-82
2022/05/07 17:28:50;;;;;;;13.63;12.80;;;21.40;59.60;;;;;;4984155;28;20479;-81
2022/05/07 17:31:17;;;;;;;13.80;13.00;;;21.30;59.30;;;;;;4984440;28;20519;-79
2022/05/07 17:33:45;;;;;;;13.60;12.90;;;21.20;59.30;;;;;;4974137;28;20447;-81
2022/05/07 17:36:14;;;;;;;13.10;12.47;;;21.20;60.10;;;;;;4973811;28;20455;-81
2022/05/07 17:38:40;;;;;;;14.27;13.47;;;21.10;59.40;;;;;;4972763;28;20459;-80
2022/05/07 17:41:07;;;;;;;13.77;13.17;;;21.00;59.30;;;;;;4972555;28;20452;-81
2022/05/07 17:43:36;;;;;;;14.10;13.20;;;21.00;59.20;;;;;;4972374;28;20452;-80
2022/05/07 17:46:03;;;;;;;13.33;12.60;;;20.90;59.40;;;;;;4972312;28;20459;-80